Time;durP1;ratioP1;P1;durP2;ratioP2;P2;SDS_P1;SDS_P2;PMS_P1;PMS_P2;Temp;Humidity;BMP_temperature;BMP_pressure;BME280_temperature;BME280_humidity;BME280_pressure;Samples;Min_cycle;Max_cycle;Signal;HPM_P1;HPM_P2
2020/12/21 00:00:30;;;;;;;14.68;2.50;;;5.90;99.90;;;;;;5063300;28;19913;-63
2020/12/21 00:02:56;;;;;;;;;;;5.90;99.90;;;;;;5071419;28;20613;-62
2020/12/21 00:05:21;;;;;;;19.17;3.33;;;5.90;99.90;;;;;;5070059;28;19916;-63
2020/12/21 00:07:47;;;;;;;;;;;5.90;99.90;;;;;;5071759;28;20037;-63
2020/12/21 00:10:12;;;;;;;10.85;2.55;;;5.90;99.90;;;;;;5072991;28;19923;-63
2020/12/21 00:12:38;;;;;;;;;;;5.90;99.90;;;;;;5075812;28;20036;-63
2020/12/21 00:15:07;;;;;;;19.13;3.47;;;5.90;99.90;;;;;;5064335;28;19971;-63
2020/12/21 00:17:34;;;;;;;11.90;2.03;;;5.90;99.90;;;;;;5040594;28;20049;-63
2020/12/21 00:19:59;;;;;;;6.57;2.33;;;5.90;99.90;;;;;;5047856;28;20036;-64
2020/12/21 00:22:25;;;;;;;;;;;5.80;99.90;;;;;;5042806;28;20049;-62
2020/12/21 00:24:51;;;;;;;9.15;2.08;;;5.90;99.90;;;;;;5036418;28;19924;-63
2020/12/21 00:27:16;;;;;;;;;;;5.80;99.90;;;;;;5048117;28;20045;-64
2020/12/21 00:29:42;;;;;;;9.65;2.42;;;5.80;99.90;;;;;;5047996;28;20288;-62
2020/12/21 00:32:08;;;;;;;;;;;5.70;99.90;;;;;;5046975;28;20116;-63
2020/12/21 00:34:33;;;;;;;11.05;2.60;;;5.70;99.90;;;;;;5045364;28;19917;-64
2020/12/21 00:36:59;;;;;;;;;;;5.70;99.90;;;;;;5042925;28;20631;-63
2020/12/21 00:39:24;;;;;;;15.05;2.63;;;5.60;99.90;;;;;;5027778;28;20036;-63
2020/12/21 00:41:50;;;;;;;8.07;2.30;;;5.60;99.90;;;;;;5027713;28;20041;-63
2020/12/21 00:44:17;;;;;;;10.30;2.60;;;5.60;99.90;;;;;;5037500;28;20044;-63
2020/12/21 00:46:43;;;;;;;11.55;2.70;;;5.60;99.90;;;;;;5047854;28;20091;-64
2020/12/21 00:49:08;;;;;;;11.18;2.20;;;5.50;99.90;;;;;;5044216;28;20033;-64
2020/12/21 00:51:34;;;;;;;;;;;5.60;99.90;;;;;;5027507;28;20052;-62
2020/12/21 00:54:00;;;;;;;8.45;2.38;;;5.60;99.90;;;;;;5041159;28;20456;-62
2020/12/21 00:56:26;;;;;;;11.93;2.58;;;5.50;99.90;;;;;;5042784;28;20135;-64
2020/12/21 00:58:52;;;;;;;14.57;2.25;;;5.40;99.90;;;;;;5045509;28;20033;-61
2020/12/21 01:01:26;;;;;;;21.05;2.92;;;5.30;99.90;;;;;;5055986;28;20039;-64
2020/12/21 01:03:52;;;;;;;16.05;2.58;;;5.30;99.90;;;;;;5066329;28;20083;-63
2020/12/21 01:06:18;;;;;;;15.30;2.72;;;5.40;99.90;;;;;;5067389;28;20416;-62
2020/12/21 01:08:44;;;;;;;;;;;5.30;99.90;;;;;;5049036;28;20047;-64
2020/12/21 01:11:10;;;;;;;16.42;2.45;;;5.30;99.90;;;;;;5065248;28;19939;-63
2020/12/21 01:13:37;;;;;;;10.73;2.25;;;5.30;99.90;;;;;;5067085;28;20075;-64
2020/12/21 01:16:03;;;;;;;10.10;2.60;;;5.30;99.90;;;;;;5049327;28;20041;-62
2020/12/21 01:18:29;;;;;;;15.88;2.88;;;5.40;99.90;;;;;;5046702;28;20047;-63
2020/12/21 01:20:54;;;;;;;;;;;5.30;99.90;;;;;;5047107;28;20041;-64
2020/12/21 01:23:20;;;;;;;11.73;2.17;;;5.30;99.90;;;;;;5048082;28;20296;-64
2020/12/21 01:25:46;;;;;;;9.52;2.05;;;5.30;99.90;;;;;;5045154;28;20409;-63
2020/12/21 01:28:12;;;;;;;9.15;1.85;;;5.30;99.90;;;;;;5047381;28;20497;-63
2020/12/21 01:30:37;;;;;;;;;;;5.20;99.90;;;;;;5045567;28;20045;-64
2020/12/21 01:33:03;;;;;;;10.60;2.20;;;5.20;99.90;;;;;;5047097;28;19920;-63
2020/12/21 01:35:28;;;;;;;;;;;5.10;99.90;;;;;;5047240;28;20071;-62
2020/12/21 01:37:54;;;;;;;14.63;2.50;;;5.00;99.90;;;;;;5033918;28;19965;-62
2020/12/21 01:40:19;;;;;;;10.68;1.90;;;5.00;99.90;;;;;;5026390;28;20037;-63
2020/12/21 01:42:45;;;;;;;8.45;1.65;;;4.90;99.90;;;;;;5026207;28;20394;-62
2020/12/21 01:45:11;;;;;;;;;;;4.90;99.90;;;;;;5043976;28;20102;-63
2020/12/21 01:47:37;;;;;;;13.80;2.17;;;4.80;99.90;;;;;;5046189;28;19928;-63
2020/12/21 01:50:04;;;;;;;6.97;1.90;;;4.80;99.90;;;;;;5034260;28;20103;-64
2020/12/21 01:52:30;;;;;;;16.77;1.92;;;4.80;99.90;;;;;;5030607;28;20095;-63
2020/12/21 01:54:56;;;;;;;10.07;1.85;;;4.80;99.90;;;;;;5034772;28;20029;-62
2020/12/21 01:57:22;;;;;;;5.63;1.80;;;4.70;99.90;;;;;;5026765;28;20553;-64
2020/12/21 01:59:47;;;;;;;;;;;4.70;99.90;;;;;;5026671;28;20034;-64
2020/12/21 02:02:13;;;;;;;9.00;2.30;;;4.60;99.90;;;;;;5057911;28;19928;-64
2020/12/21 02:04:38;;;;;;;13.20;2.45;;;4.60;99.90;;;;;;5066532;28;20522;-64
2020/12/21 02:07:06;;;;;;;8.75;1.90;;;4.60;99.90;;;;;;5062783;28;20806;-64
2020/12/21 02:09:32;;;;;;;13.60;1.88;;;4.50;99.90;;;;;;5064802;28;20535;-63
2020/12/21 02:11:58;;;;;;;6.85;1.80;;;4.50;99.90;;;;;;5047335;28;20115;-63
2020/12/21 02:14:23;;;;;;;6.40;1.65;;;4.50;99.90;;;;;;5063441;28;20136;-63
2020/12/21 02:16:49;;;;;;;;;;;4.40;99.90;;;;;;5065695;28;20040;-63
2020/12/21 02:19:15;;;;;;;8.57;2.22;;;4.30;99.90;;;;;;5067111;28;19924;-61
2020/12/21 02:21:40;;;;;;;;;;;4.40;99.90;;;;;;5066294;28;20045;-63
2020/12/21 02:24:09;;;;;;;15.75;1.85;;;4.30;99.90;;;;;;5066111;28;19928;-63
2020/12/21 02:26:34;;;;;;;13.50;3.15;;;4.30;99.90;;;;;;5065525;28;20040;-63
2020/12/21 02:29:00;;;;;;;9.75;2.13;;;4.30;99.90;;;;;;5066208;28;20033;-64
2020/12/21 02:31:26;;;;;;;11.60;1.60;;;4.30;99.90;;;;;;5064613;28;20041;-62
2020/12/21 02:33:53;;;;;;;16.92;1.50;;;4.30;99.90;;;;;;5066090;28;20088;-63
2020/12/21 02:36:19;;;;;;;8.38;2.13;;;4.30;99.90;;;;;;5066518;28;20044;-63
2020/12/21 02:38:45;;;;;;;15.60;2.33;;;4.30;99.90;;;;;;5047596;28;20099;-63
2020/12/21 02:41:18;;;;;;;8.82;1.80;;;4.20;99.90;;;;;;5044998;28;20029;-63
2020/12/21 02:43:44;;;;;;;13.52;2.85;;;4.20;99.90;;;;;;5044987;28;20472;-62
2020/12/21 02:46:11;;;;;;;9.73;2.15;;;4.10;99.90;;;;;;5045637;28;20159;-64
2020/12/21 02:48:37;;;;;;;11.68;2.22;;;4.10;99.90;;;;;;5047213;28;20424;-64
2020/12/21 02:51:03;;;;;;;12.43;2.50;;;4.10;99.90;;;;;;5045096;28;20044;-63
2020/12/21 02:53:28;;;;;;;;;;;4.10;99.90;;;;;;5059667;28;20604;-63
2020/12/21 02:55:54;;;;;;;8.90;2.25;;;4.10;99.90;;;;;;5055941;28;19976;-62
2020/12/21 02:58:20;;;;;;;10.02;1.90;;;4.10;99.90;;;;;;5061360;28;20044;-63
2020/12/21 03:00:46;;;;;;;10.88;2.03;;;4.00;99.90;;;;;;5043671;28;20071;-63
2020/12/21 03:03:12;;;;;;;8.23;2.28;;;4.00;99.90;;;;;;5045483;28;20041;-63
2020/12/21 03:05:38;;;;;;;11.43;2.47;;;4.00;99.90;;;;;;5045006;28;20041;-63
2020/12/21 03:08:05;;;;;;;10.77;2.38;;;4.00;99.90;;;;;;5045487;28;20508;-64
2020/12/21 03:10:31;;;;;;;11.80;2.08;;;4.00;99.90;;;;;;5043655;28;20045;-63
2020/12/21 03:12:58;;;;;;;11.23;3.03;;;4.00;99.90;;;;;;5044993;28;20098;-63
2020/12/21 03:15:24;;;;;;;7.50;1.85;;;4.00;99.90;;;;;;5044993;28;20049;-64
2020/12/21 03:17:49;;;;;;;6.65;1.83;;;4.00;99.90;;;;;;5043908;28;20075;-63
2020/12/21 03:20:15;;;;;;;;;;;4.10;99.90;;;;;;5064381;28;20041;-64
2020/12/21 03:22:41;;;;;;;11.00;2.17;;;4.10;99.90;;;;;;5051395;28;19924;-63
2020/12/21 03:25:07;;;;;;;;;;;4.10;99.90;;;;;;5065704;28;20115;-64
2020/12/21 03:27:33;;;;;;;18.50;2.45;;;4.10;99.90;;;;;;5059589;28;19928;-64
2020/12/21 03:29:58;;;;;;;10.98;2.08;;;4.00;99.90;;;;;;5053152;28;20044;-63
2020/12/21 03:32:24;;;;;;;;;;;4.00;99.90;;;;;;5044937;28;20443;-62
2020/12/21 03:34:50;;;;;;;8.82;1.73;;;3.90;99.90;;;;;;5044919;28;20096;-63
2020/12/21 03:37:15;;;;;;;14.57;2.60;;;3.90;99.90;;;;;;5051851;28;20077;-63
2020/12/21 03:39:41;;;;;;;11.00;2.08;;;3.90;99.90;;;;;;5059036;28;20044;-63
2020/12/21 03:42:07;;;;;;;13.60;2.10;;;3.90;99.90;;;;;;5044066;28;20139;-64
2020/12/21 03:44:32;;;;;;;13.75;1.92;;;3.90;99.90;;;;;;5044729;28;20136;-63
2020/12/21 03:46:58;;;;;;;8.18;1.88;;;3.90;99.90;;;;;;5044025;28;20033;-63
2020/12/21 03:49:23;;;;;;;9.73;2.20;;;3.90;99.90;;;;;;5045618;28;20586;-63
2020/12/21 03:51:49;;;;;;;;;;;3.90;99.90;;;;;;5049235;28;20039;-63
2020/12/21 03:54:14;;;;;;;8.65;2.60;;;3.90;99.90;;;;;;5063353;28;19928;-63
2020/12/21 03:56:43;;;;;;;;;;;3.90;99.90;;;;;;5064939;28;20553;-64
2020/12/21 03:59:10;;;;;;;11.18;2.03;;;3.80;99.90;;;;;;5058556;28;19971;-64
2020/12/21 04:01:37;;;;;;;7.20;1.73;;;3.90;99.90;;;;;;5047329;28;20048;-64
2020/12/21 04:04:04;;;;;;;7.30;1.95;;;3.90;99.90;;;;;;5048356;28;20044;-62
2020/12/21 04:06:30;;;;;;;11.88;2.28;;;3.90;99.90;;;;;;5048245;28;20048;-64
2020/12/21 04:08:55;;;;;;;7.82;1.92;;;3.90;99.90;;;;;;5048788;28;20041;-62
2020/12/21 04:11:21;;;;;;;14.20;2.42;;;3.90;99.90;;;;;;5059036;28;20500;-63
2020/12/21 04:13:46;;;;;;;7.13;1.80;;;3.90;99.90;;;;;;5061825;28;20045;-64
2020/12/21 04:16:12;;;;;;;;;;;3.90;99.90;;;;;;5068638;28;20127;-64
2020/12/21 04:18:38;;;;;;;5.25;1.73;;;3.90;99.90;;;;;;5068106;28;20349;-64
2020/12/21 04:21:03;;;;;;;21.58;2.80;;;3.90;99.90;;;;;;5063418;28;20086;-63
2020/12/21 04:23:29;;;;;;;12.77;1.83;;;4.00;99.90;;;;;;5056040;28;20045;-64
2020/12/21 04:25:55;;;;;;;12.82;2.47;;;4.00;99.90;;;;;;5059859;28;20154;-62
2020/12/21 04:28:21;;;;;;;8.45;2.05;;;4.00;99.90;;;;;;5067650;28;20044;-64
2020/12/21 04:30:46;;;;;;;14.75;2.25;;;3.90;99.90;;;;;;5065727;28;20432;-64
2020/12/21 04:33:12;;;;;;;;;;;3.90;99.90;;;;;;5069229;28;20044;-63
2020/12/21 04:35:37;;;;;;;12.15;1.85;;;3.90;99.90;;;;;;5067620;28;20417;-63
2020/12/21 04:38:03;;;;;;;14.15;2.17;;;3.90;99.90;;;;;;5054840;28;20548;-63
2020/12/21 04:40:28;;;;;;;10.27;1.98;;;3.90;99.90;;;;;;5046367;28;20037;-63
2020/12/21 04:42:54;;;;;;;;;;;3.90;99.90;;;;;;5048235;28;20182;-64
2020/12/21 04:45:20;;;;;;;10.23;1.70;;;3.90;99.90;;;;;;5047567;28;20307;-63
2020/12/21 04:47:47;;;;;;;13.60;1.75;;;3.80;99.90;;;;;;5063033;28;20170;-64
2020/12/21 04:50:17;;;;;;;11.07;2.00;;;3.80;99.90;;;;;;5047645;28;20453;-63
2020/12/21 04:52:50;;;;;;;7.68;1.65;;;3.90;99.90;;;;;;5057497;28;20044;-63
2020/12/21 04:55:21;;;;;;;8.70;1.83;;;4.00;99.90;;;;;;5059604;28;20450;-64
2020/12/21 04:57:54;;;;;;;10.30;1.98;;;3.90;99.90;;;;;;5067255;28;20561;-63
2020/12/21 05:00:20;;;;;;;17.42;2.67;;;3.90;99.90;;;;;;5046737;28;20056;-64
2020/12/21 05:02:45;;;;;;;7.93;1.63;;;3.90;99.90;;;;;;5047069;28;20041;-63
2020/12/21 05:05:11;;;;;;;9.25;1.48;;;3.90;99.90;;;;;;5047316;28;20045;-64
2020/12/21 05:07:36;;;;;;;10.65;2.33;;;3.90;99.90;;;;;;5046943;28;20099;-64
2020/12/21 05:10:08;;;;;;;8.15;1.60;;;3.80;99.90;;;;;;5055841;28;20040;-63
2020/12/21 05:12:35;;;;;;;9.43;2.40;;;3.80;99.90;;;;;;5067387;28;20040;-64
2020/12/21 05:15:12;;;;;;;13.13;1.90;;;3.80;99.90;;;;;;5067467;28;20119;-63
2020/12/21 05:17:37;;;;;;;;;;;3.70;99.90;;;;;;5066955;28;20040;-63
2020/12/21 05:20:03;;;;;;;14.93;2.27;;;3.70;99.90;;;;;;5066357;28;19924;-64
2020/12/21 05:22:29;;;;;;;9.90;2.15;;;3.70;99.90;;;;;;5067050;28;20101;-64
2020/12/21 05:25:06;;;;;;;9.73;1.85;;;3.70;99.90;;;;;;5048798;28;20433;-63
2020/12/21 05:27:32;;;;;;;13.93;1.52;;;3.70;99.90;;;;;;5062468;28;20123;-64
2020/12/21 05:29:57;;;;;;;11.35;1.80;;;3.70;99.90;;;;;;5056914;28;20120;-64
2020/12/21 05:32:23;;;;;;;17.20;1.90;;;3.70;99.90;;;;;;5053069;28;20403;-63
2020/12/21 05:34:48;;;;;;;;;;;3.70;99.90;;;;;;5067127;28;20047;-63
2020/12/21 05:37:21;;;;;;;9.52;1.85;;;3.70;99.90;;;;;;5059855;28;19923;-63
2020/12/21 05:39:52;;;;;;;4.95;1.75;;;3.70;99.90;;;;;;5047427;28;20033;-64
2020/12/21 05:42:17;;;;;;;12.27;2.47;;;3.70;99.90;;;;;;5046490;28;20098;-63
2020/12/21 05:45:02;;;;;;;9.95;1.50;;;3.70;99.90;;;;;;5066190;28;20048;-63
2020/12/21 05:47:28;;;;;;;9.68;1.42;;;3.70;99.90;;;;;;5065354;28;20113;-64
2020/12/21 05:50:07;;;;;;;9.48;1.88;;;3.70;99.90;;;;;;5066043;28;20095;-63
2020/12/21 05:52:37;;;;;;;9.65;1.73;;;3.70;99.90;;;;;;5064953;28;20076;-64
2020/12/21 05:55:10;;;;;;;10.70;1.83;;;3.70;99.90;;;;;;5054681;28;20052;-64
2020/12/21 05:57:38;;;;;;;8.38;1.75;;;3.70;99.90;;;;;;5046006;28;20095;-63
2020/12/21 06:00:06;;;;;;;10.43;1.90;;;3.70;99.90;;;;;;5063632;28;20119;-63
2020/12/21 06:02:33;;;;;;;7.95;1.85;;;3.70;99.90;;;;;;5065117;28;20087;-63
2020/12/21 06:05:01;;;;;;;6.70;1.60;;;3.70;99.90;;;;;;5066545;28;20033;-63
2020/12/21 06:07:29;;;;;;;5.82;2.03;;;3.70;99.90;;;;;;5062475;28;20048;-63
2020/12/21 06:09:58;;;;;;;11.30;2.00;;;3.60;99.90;;;;;;5058222;28;20459;-64
2020/12/21 06:12:26;;;;;;;9.88;1.45;;;3.60;99.90;;;;;;5064778;28;20040;-62
2020/12/21 06:14:56;;;;;;;6.18;1.52;;;3.60;99.90;;;;;;5051377;28;20052;-63
2020/12/21 06:17:22;;;;;;;17.13;2.28;;;3.60;99.90;;;;;;5050755;28;20068;-63
2020/12/21 06:19:48;;;;;;;12.80;2.38;;;3.70;99.90;;;;;;5046059;28;20084;-63
2020/12/21 06:22:23;;;;;;;6.78;1.63;;;3.60;99.90;;;;;;5048639;28;20032;-63
2020/12/21 06:24:49;;;;;;;9.75;2.58;;;3.70;99.90;;;;;;5061502;28;20474;-64
2020/12/21 06:27:16;;;;;;;12.05;2.25;;;3.70;99.90;;;;;;5044821;28;20036;-63
2020/12/21 06:29:42;;;;;;;15.27;1.90;;;3.70;99.90;;;;;;5045100;28;20067;-65
2020/12/21 06:32:09;;;;;;;8.38;1.70;;;3.70;99.90;;;;;;5061830;28;20036;-63
2020/12/21 06:34:37;;;;;;;12.15;2.22;;;3.70;99.90;;;;;;5065216;28;20048;-64
2020/12/21 06:37:16;;;;;;;10.63;2.00;;;3.70;99.90;;;;;;5059807;28;20496;-64
2020/12/21 06:39:42;;;;;;;6.60;1.90;;;3.60;99.90;;;;;;5058313;28;20036;-62
2020/12/21 06:42:09;;;;;;;7.88;2.35;;;3.60;99.90;;;;;;5065647;28;20048;-62
2020/12/21 06:44:38;;;;;;;14.75;2.00;;;3.60;99.90;;;;;;5065157;28;20385;-63
2020/12/21 06:47:07;;;;;;;15.48;2.10;;;3.60;99.90;;;;;;5065257;28;20140;-61
2020/12/21 06:49:33;;;;;;;5.57;1.60;;;3.60;99.90;;;;;;5065496;28;20042;-62
2020/12/21 06:52:00;;;;;;;9.20;1.92;;;3.60;99.90;;;;;;5062741;28;20032;-63
2020/12/21 06:54:25;;;;;;;6.88;2.03;;;3.60;99.90;;;;;;5041821;28;20106;-63
2020/12/21 06:56:52;;;;;;;8.60;1.95;;;3.50;99.90;;;;;;5063041;28;20036;-63
2020/12/21 06:59:21;;;;;;;11.75;2.00;;;3.50;99.90;;;;;;5054865;28;20120;-64
2020/12/21 07:01:50;;;;;;;7.85;1.83;;;3.50;99.90;;;;;;5018812;28;20042;-62
2020/12/21 07:04:19;;;;;;;8.13;1.83;;;3.50;99.90;;;;;;5025305;28;20077;-62
2020/12/21 07:06:49;;;;;;;10.38;2.15;;;3.50;99.90;;;;;;5006105;28;20038;-63
2020/12/21 07:09:21;;;;;;;10.88;1.65;;;3.50;99.90;;;;;;5006004;28;20042;-63
2020/12/21 07:11:55;;;;;;;6.45;1.77;;;3.50;99.90;;;;;;5005289;28;20045;-62
2020/12/21 07:14:23;;;;;;;6.22;1.75;;;3.50;99.90;;;;;;5010496;28;20050;-64
2020/12/21 07:17:02;;;;;;;13.70;1.75;;;3.50;99.90;;;;;;5004728;28;20635;-61
2020/12/21 07:19:27;;;;;;;4.60;1.73;;;3.50;99.90;;;;;;5006453;28;20038;-63
2020/12/21 07:21:53;;;;;;;9.45;1.92;;;3.50;99.90;;;;;;5006338;28;20041;-67
2020/12/21 07:24:22;;;;;;;8.02;1.98;;;3.50;99.90;;;;;;4996213;23;20089;-64
2020/12/21 07:26:49;;;;;;;10.82;2.08;;;3.40;99.90;;;;;;4998769;28;20054;-67
2020/12/21 07:29:14;;;;;;;13.73;2.40;;;3.40;99.90;;;;;;4996566;28;20038;-61
2020/12/21 07:31:42;;;;;;;13.73;2.38;;;3.50;99.90;;;;;;5001995;23;20487;-72
2020/12/21 07:34:08;;;;;;;9.25;2.13;;;3.50;99.90;;;;;;4961392;28;20066;-64
2020/12/21 07:36:39;;;;;;;9.57;1.95;;;3.50;99.90;;;;;;4972354;28;20069;-63
2020/12/21 07:39:08;;;;;;;6.22;1.80;;;3.60;99.90;;;;;;4963380;28;20707;-67
2020/12/21 07:41:36;;;;;;;6.75;1.98;;;3.60;99.90;;;;;;4958258;28;20058;-67
2020/12/21 07:44:19;;;;;;;13.18;2.13;;;3.70;99.90;;;;;;4972453;28;20069;-64
2020/12/21 07:46:54;;;;;;;14.48;2.00;;;3.80;99.90;;;;;;4984528;28;20077;-62
2020/12/21 07:49:20;;;;;;;12.43;2.33;;;3.90;99.90;;;;;;4991727;28;20046;-63
2020/12/21 07:51:46;;;;;;;11.40;2.20;;;4.00;99.90;;;;;;4990922;28;20490;-63
2020/12/21 07:54:13;;;;;;;9.43;1.85;;;4.00;99.90;;;;;;4992163;28;20042;-64
2020/12/21 07:56:40;;;;;;;10.73;2.13;;;4.10;99.90;;;;;;4992370;28;20061;-64
2020/12/21 07:59:18;;;;;;;13.30;2.63;;;4.00;99.90;;;;;;4991875;28;20065;-64
2020/12/21 08:01:45;;;;;;;15.95;2.55;;;4.10;99.90;;;;;;4990657;28;20048;-62
2020/12/21 08:04:17;;;;;;;10.23;1.90;;;4.10;99.90;;;;;;4988718;28;20376;-65
2020/12/21 08:06:46;;;;;;;9.23;2.22;;;4.20;99.90;;;;;;4990802;28;20089;-63
2020/12/21 08:09:12;;;;;;;4.47;1.70;;;4.30;99.90;;;;;;4991021;28;20038;-62
2020/12/21 08:11:38;;;;;;;8.55;2.45;;;4.30;99.90;;;;;;4990686;28;20525;-62
2020/12/21 08:14:07;;;;;;;16.38;3.97;;;4.30;99.90;;;;;;4992491;23;20133;-84
2020/12/21 08:16:33;;;;;;;11.05;2.63;;;4.40;99.90;;;;;;4992229;28;20038;-83
2020/12/21 08:18:59;;;;;;;12.43;2.00;;;4.50;99.90;;;;;;4991676;28;20034;-83
2020/12/21 08:21:26;;;;;;;8.38;2.10;;;4.50;99.90;;;;;;4991704;28;20042;-83
2020/12/21 08:23:54;;;;;;;9.75;2.55;;;4.50;99.90;;;;;;4993712;28;20085;-84
2020/12/21 08:26:20;;;;;;;12.80;2.17;;;4.60;99.90;;;;;;4992968;28;20030;-83
2020/12/21 08:28:48;;;;;;;12.35;3.33;;;4.60;99.90;;;;;;4992215;28;20137;-83
2020/12/21 08:31:18;;;;;;;9.23;2.15;;;4.70;99.90;;;;;;4992321;28;20042;-84
2020/12/21 08:34:07;;;;;;;11.02;2.17;;;4.70;99.90;;;;;;4988261;28;20532;-82
2020/12/21 08:36:39;;;;;;;10.85;2.78;;;4.80;99.90;;;;;;4988558;28;20053;-84
2020/12/21 08:39:10;;;;;;;9.52;2.78;;;4.80;99.90;;;;;;4985555;28;20506;-82
2020/12/21 08:41:50;;;;;;;14.38;2.50;;;4.70;99.90;;;;;;4985287;28;20077;-80
2020/12/21 08:44:22;;;;;;;10.68;2.70;;;4.70;99.90;;;;;;4991704;28;20046;-81
2020/12/21 08:47:00;;;;;;;11.20;3.85;;;4.70;99.90;;;;;;5000797;28;20121;-84
2020/12/21 08:49:27;;;;;;;14.13;2.97;;;4.70;99.90;;;;;;4978046;28;20042;-83
2020/12/21 08:52:00;;;;;;;13.20;2.30;;;4.70;99.90;;;;;;4971990;28;20046;-80
2020/12/21 08:54:26;;;;;;;6.72;2.20;;;4.70;99.90;;;;;;4991044;28;20042;-83
2020/12/21 08:56:57;;;;;;;6.90;1.75;;;4.70;99.90;;;;;;4981466;28;20503;-82
2020/12/21 08:59:23;;;;;;;8.60;3.00;;;4.70;99.90;;;;;;4985619;28;20038;-82
2020/12/21 09:01:49;;;;;;;10.02;2.90;;;4.80;99.90;;;;;;4990930;28;20046;-83
2020/12/21 09:04:16;;;;;;;10.65;2.00;;;4.80;99.90;;;;;;4986399;28;20058;-84
2020/12/21 09:06:42;;;;;;;5.78;1.80;;;4.90;99.90;;;;;;4974910;28;20046;-83
2020/12/21 09:09:08;;;;;;;6.70;2.05;;;4.90;99.90;;;;;;4991066;28;20120;-83
2020/12/21 09:11:35;;;;;;;9.93;4.28;;;4.90;99.90;;;;;;4991517;28;20038;-82
2020/12/21 09:14:01;;;;;;;6.68;3.03;;;5.00;99.90;;;;;;4990542;28;20053;-83
2020/12/21 09:16:29;;;;;;;10.05;3.05;;;5.00;99.90;;;;;;4989660;28;20038;-83
2020/12/21 09:18:57;;;;;;;10.00;1.73;;;5.00;99.90;;;;;;4992161;28;20062;-83
2020/12/21 09:21:29;;;;;;;6.07;2.08;;;5.00;99.90;;;;;;4991649;28;20046;-84
2020/12/21 09:24:00;;;;;;;6.93;2.30;;;5.10;99.90;;;;;;4991090;28;20069;-83
2020/12/21 09:26:27;;;;;;;10.15;2.05;;;;;;;;;;4993269;28;20042;-83
2020/12/21 09:28:55;;;;;;;7.95;1.55;;;;;;;;;;4991717;28;20050;-83
2020/12/21 09:31:22;;;;;;;9.73;1.95;;;;;;;;;;4990934;28;20042;-83
2020/12/21 09:33:50;;;;;;;17.95;7.53;;;;;;;;;;4990548;28;20045;-85
2020/12/21 09:36:19;;;;;;;15.98;7.03;;;;;;;;;;4991197;28;20045;-83
2020/12/21 09:38:49;;;;;;;5.00;2.60;;;;;;;;;;4993118;28;20038;-83
2020/12/21 09:41:26;;;;;;;8.95;2.17;;;;;;;;;;4990379;28;20045;-83
2020/12/21 09:43:52;;;;;;;21.55;10.23;;;;;;;;;;4991827;28;20053;-83
2020/12/21 09:46:23;;;;;;;12.48;4.40;;;;;;;;;;4989455;28;20049;-83
2020/12/21 09:48:55;;;;;;;7.60;2.20;;;;;;;;;;4988524;28;20510;-83
2020/12/21 09:51:22;;;;;;;4.40;1.75;;;;;;;;;;4989455;28;20042;-84
2020/12/21 09:53:48;;;;;;;8.90;2.63;;;;;;;;;;4989179;28;20046;-84
2020/12/21 09:56:15;;;;;;;7.50;1.88;;;;;;;;;;4990217;28;20038;-83
2020/12/21 09:58:42;;;;;;;5.97;2.15;;;;;;;;;;4989716;28;20070;-83
2020/12/21 10:01:11;;;;;;;4.90;1.90;;;;;;;;;;4988335;28;20128;-83
2020/12/21 10:03:39;;;;;;;5.47;1.80;;;;;;;;;;4987102;28;20042;-89
2020/12/21 10:06:09;;;;;;;4.10;1.50;;;;;;;;;;4969838;28;20061;-84
2020/12/21 10:08:36;;;;;;;13.07;5.82;;;;;;;;;;4971330;28;20043;-82
2020/12/21 10:11:03;;;;;;;9.75;2.97;;;;;;;;;;4990579;28;20093;-85
2020/12/21 10:13:30;;;;;;;6.25;2.83;;;;;;;;;;4983884;28;20043;-85
2020/12/21 10:15:57;;;;;;;9.95;2.15;;;;;;;;;;4969464;28;20073;-84
2020/12/21 10:18:23;;;;;;;5.55;2.30;;;;;;;;;;4973060;28;20061;-84
2020/12/21 10:20:50;;;;;;;10.65;2.58;;;;;;;;;;4990297;28;20047;-84
2020/12/21 10:23:16;;;;;;;31.13;14.07;;;;;;;;;;4991155;28;20096;-83
2020/12/21 10:25:43;;;;;;;11.45;3.83;;;;;;;;;;4991186;28;20050;-84
2020/12/21 10:28:09;;;;;;;10.85;2.20;;;;;;;;;;4989310;28;20085;-85
2020/12/21 10:30:35;;;;;;;7.93;2.65;;;;;;;;;;4988073;28;20038;-82
2020/12/21 10:33:05;;;;;;;8.65;2.70;;;;;;;;;;4988825;28;20051;-84
2020/12/21 10:35:32;;;;;;;9.50;2.80;;;;;;;;;;4981405;28;20053;-84
2020/12/21 10:37:58;;;;;;;9.70;2.65;;;;;;;;;;4969030;28;20082;-85
2020/12/21 10:40:25;;;;;;;13.13;3.95;;;;;;;;;;4968262;28;20463;-82
2020/12/21 10:42:53;;;;;;;19.40;9.95;;;;;;;;;;4988151;28;20046;-85
2020/12/21 10:45:19;;;;;;;21.13;12.10;;;;;;;;;;4986845;28;20856;-84
2020/12/21 10:47:47;;;;;;;8.05;3.78;;;;;;;;;;4969956;28;20061;-82
2020/12/21 10:50:19;;;;;;;7.13;2.80;;;;;;;;;;4968998;28;20042;-84
2020/12/21 10:52:45;;;;;;;9.02;2.55;;;;;;;;;;4972951;28;20089;-84
2020/12/21 10:55:12;;;;;;;6.00;2.35;;;;;;;;;;4967536;28;20130;-84
2020/12/21 10:57:39;;;;;;;10.30;2.30;;;;;;;;;;4967990;28;20073;-84
2020/12/21 11:00:06;;;;;;;8.50;2.25;;;;;;;;;;4975468;28;20090;-84
2020/12/21 11:02:32;;;;;;;9.07;2.85;;;;;;;;;;4982728;28;20081;-84
2020/12/21 11:04:58;;;;;;;8.07;2.78;;;;;;;;;;4985168;28;20570;-84
2020/12/21 11:07:25;;;;;;;8.25;2.47;;;;;;;;;;4968571;28;20065;-83
2020/12/21 11:09:51;;;;;;;13.73;5.80;;;;;;;;;;4968734;28;20476;-84
2020/12/21 11:12:22;;;;;;;11.88;3.25;;;;;;;;;;4974693;28;20171;-82
2020/12/21 11:14:49;;;;;;;7.18;2.97;;;;;;;;;;4982226;28;20042;-84
2020/12/21 11:17:15;;;;;;;9.27;2.60;;;;;;;;;;4976635;28;20038;-83
2020/12/21 11:19:41;;;;;;;7.72;2.47;;;;;;;;;;4970297;28;20054;-83
2020/12/21 11:22:07;;;;;;;6.07;2.55;;;;;;;;;;4976520;28;20043;-83
2020/12/21 11:24:35;;;;;;;9.50;2.95;;;;;;;;;;4968853;28;20046;-84
2020/12/21 11:27:01;;;;;;;14.93;2.80;;;;;;;;;;4980022;28;20038;-82
2020/12/21 11:29:27;;;;;;;9.70;2.70;;;;;;;;;;4987624;28;20069;-82
2020/12/21 11:31:54;;;;;;;6.50;2.30;;;;;;;;;;4986747;28;20097;-83
2020/12/21 11:34:20;;;;;;;5.35;2.40;;;;;;;;;;4979927;28;20074;-84
2020/12/21 11:36:46;;;;;;;8.18;3.00;;;;;;;;;;4971879;28;20039;-84
2020/12/21 11:39:13;;;;;;;4.40;1.98;;;;;;;;;;4983457;28;20146;-82
2020/12/21 11:41:39;;;;;;;7.72;2.33;;;;;;;;;;4993373;28;20640;-82
2020/12/21 11:44:06;;;;;;;9.00;3.60;;;;;;;;;;4987941;28;20066;-83
2020/12/21 11:46:33;;;;;;;5.88;2.55;;;;;;;;;;4988542;28;20566;-84
2020/12/21 11:49:00;;;;;;;9.75;3.35;;;;;;;;;;4988822;28;20097;-82
2020/12/21 11:51:27;;;;;;;7.82;2.35;;;;;;;;;;4988486;28;20042;-84
2020/12/21 11:53:53;;;;;;;9.68;2.58;;;;;;;;;;4988432;28;20145;-85
2020/12/21 11:56:21;;;;;;;9.98;2.72;;;;;;;;;;4988042;28;20526;-84
2020/12/21 11:58:48;;;;;;;5.40;2.53;;;;;;;;;;4987334;28;20045;-83
2020/12/21 12:01:19;;;;;;;8.07;3.00;;;;;;;;;;4987412;28;20038;-83
2020/12/21 12:03:54;;;;;;;10.88;3.55;;;;;;;;;;4989943;28;20073;-83
2020/12/21 12:06:25;;;;;;;8.63;3.25;;;;;;;;;;4983352;28;20053;-84
2020/12/21 12:08:55;;;;;;;9.20;3.60;;;;;;;;;;4970908;28;20043;-83
2020/12/21 12:11:22;;;;;;;11.68;5.57;;;;;;;;;;4988144;28;20041;-84
2020/12/21 12:13:49;;;;;;;7.95;2.45;;;;;;;;;;4984729;28;20050;-85
2020/12/21 12:16:19;;;;;;;10.32;3.55;;;;;;;;;;4992238;28;20058;-83
2020/12/21 12:18:46;;;;;;;9.27;3.45;;;;;;;;;;4991858;28;20491;-84
2020/12/21 12:21:20;;;;;;;7.50;3.13;;;;;;;;;;4994072;28;20050;-81
2020/12/21 12:23:46;;;;;;;5.45;2.35;;;;;;;;;;4990939;28;20046;-83
2020/12/21 12:26:19;;;;;;;7.10;2.40;;;;;;;;;;4991308;28;20085;-85
2020/12/21 12:28:46;;;;;;;5.78;2.70;;;;;;;;;;4990420;28;20034;-82
2020/12/21 12:31:19;;;;;;;5.32;2.35;;;;;;;;;;4990653;28;20057;-84
2020/12/21 12:33:45;;;;;;;5.03;2.00;;;;;;;;;;4990648;28;20511;-86
2020/12/21 12:36:19;;;;;;;6.15;2.13;;;;;;;;;;4990871;28;20123;-84
2020/12/21 12:38:46;;;;;;;8.35;1.95;;;;;;;;;;4979527;28;20039;-83
2020/12/21 12:41:12;;;;;;;6.85;2.30;;;;;;;;;;4973894;28;20054;-84
2020/12/21 12:43:40;;;;;;;10.93;2.22;;;;;;;;;;4977106;28;20038;-84
2020/12/21 12:46:08;;;;;;;5.43;2.22;;;;;;;;;;4991009;28;20042;-83
2020/12/21 12:48:35;;;;;;;5.07;2.20;;;;;;;;;;4993276;28;20399;-83
2020/12/21 12:51:02;;;;;;;7.10;2.10;;;;;;;;;;4996289;28;20042;-83
2020/12/21 12:53:29;;;;;;;4.90;2.15;;;;;;;;;;4977652;28;20376;-84
2020/12/21 12:55:55;;;;;;;5.00;2.20;;;;;;;;;;4972136;28;20039;-82
2020/12/21 12:58:22;;;;;;;30.05;17.90;;;;;;;;;;4972076;28;20122;-83
2020/12/21 13:00:55;;;;;;;8.82;4.00;;;;;;;;;;4977817;28;20074;-86
2020/12/21 13:03:21;;;;;;;5.53;2.00;;;;;;;;;;4985505;28;20104;-84
2020/12/21 13:05:47;;;;;;;5.70;1.88;;;;;;;;;;4982061;28;20129;-84
2020/12/21 13:08:15;;;;;;;7.43;1.98;;;;;;;;;;4980454;28;20123;-84
2020/12/21 13:10:42;;;;;;;5.07;1.83;;;;;;;;;;4990915;28;20121;-84
2020/12/21 13:13:19;;;;;;;5.68;1.90;;;;;;;;;;4992198;28;20038;-87
2020/12/21 13:15:47;;;;;;;;;;;;;;;;;;4994211;28;20102;-85
2020/12/21 13:18:17;;;;;;;7.25;2.33;;;;;;;;;;4985004;28;19968;-84
2020/12/21 13:20:43;;;;;;;4.85;1.98;;;;;;;;;;4990613;28;20046;-82
2020/12/21 13:23:09;;;;;;;7.20;2.15;;;;;;;;;;4988804;28;20077;-83
2020/12/21 13:25:35;;;;;;;4.13;2.03;;;;;;;;;;4991813;28;20042;-84
2020/12/21 13:28:01;;;;;;;8.07;2.38;;;;;;;;;;4984462;28;20046;-83
2020/12/21 13:30:30;;;;;;;8.23;2.15;;;;;;;;;;4990611;28;20046;-85